Airfield :
LOGIN :

Register | Disclaimer

   EN    FR    IT 

 










Legend :    VFR   Marginal VFR   IFR   Intensive IFR   Very Intensive IFR
Visi :
Ceiling :
>= 8 km
>= 3000ft
5 to 8 km
1000 to 3000 ft
1500m to 5 km
500 to 1000 ft
800 to 1500m
200 to 500 ft
< 800m
< 200 ft
Symbols :   Thunderstorms  Fog  Heavy snow  Heavy precipitations  Wind > 20 kt
SIGMETs :     Misc.  Thunderstorms  Icing  Turbulence  Mountain Waves  Volcanic Ashes







- Airport Elevation : 348 ft
- IATA code : STN
- Download approach charts


EGSS - London Stansted

CURRENT METAR :
  • 150950Z AUTO 32011KT 9999 BKN027 02/00 Q0995

EXPIRED METARs :
  • 150920Z AUTO 32008KT 9999 SCT010 SCT026 BKN034 02/00 Q0994
  • 150850Z AUTO 32008KT 9999 FEW009 SCT012 01/00 Q0994
  • 150820Z AUTO 32009KT 9999 SCT009 BKN012 BKN022 02/01 Q0993
  • 150750Z AUTO 32007KT 9999 BKN016 BKN024 OVC031 01/01 Q0992 REDZ
  • 150720Z 31005KT 9999 BKN012 01/01 Q0992

TAF AMD TAF EGSS
Valid from the 15 at 06:00 until the 16 at 12:00 UTC


150609Z 1506/1612 33010KT 9999 SCT030
TEMPO 1506/1515 7000 SHRA BKN010
PROB30
TEMPO 1506/1507 2000 +SHRASN BKN004
PROB30
TEMPO 1507/1511 3000 SHRASN BKN004
PROB30
TEMPO 1510/1521 35015G25KT
PROB30
TEMPO 1515/1521 7000 SHRA BKN014
BECMG 1609/1612 27010KT
ATIS : +44 1279 669 325
No reported NOTAMs for that airfield.



MET'MAP, your aeronautical weather chart ! - Copyright ORBIFLY December 2007 - Disclaimer

ORBIFLY MET'MAP TEAM :

Programming & Development : Alexandra Zaïnal
Concept & Development : Baudouin d'Aumeries
Co-Development & Prog : Marc-Olivier Méhu
Technical & hardware support : Manuel Goepfert

Contact : metmap@orbifly.com




SOURCES & CREDITS :

   NOAA